Terminal Aerodrome Forecast
Issued by NWS

Home | Current Version | Previous Version | Text Only | Print | Product List | Glossary On
Versions: 1 2 3 4 5 6 7 8 9 10 11 12 13 14 15 16 17 18 19 20 21 22
000
FTUS43 KIWX 271358 AAA
TAFSBN
TAF AMD
KSBN 271358Z 2714/2812 07006KT 6SM BR VCTS FEW005 SCT030CB BKN080
      TEMPO 2714/2717 3SM -TSRA BR BKN025CB
     FM271700 14007KT P6SM VCSH SCT050 OVC100
     FM271900 18007KT P6SM SCT040 BKN120
     FM280700 24003KT 3SM BR BKN150=

USA.gov is the U.S. government's official web portal to all federal, state and local government web resources and services.